Time;durP1;ratioP1;P1;durP2;ratioP2;P2;SDS_P1;SDS_P2;PMS_P1;PMS_P2;Temp;Humidity;BMP_temperature;BMP_pressure;BME280_temperature;BME280_humidity;BME280_pressure;Samples;Min_cycle;Max_cycle;Signal;HPM_P1;HPM_P2
2022/06/21 00:00:27;;;;;;;3.97;2.07;;;24.80;43.30;;;;;;5058941;28;20229;-66
2022/06/21 00:03:04;;;;;;;2.93;1.87;;;24.80;43.30;;;;;;5064155;28;20300;-65
2022/06/21 00:05:42;;;;;;;3.03;1.80;;;24.80;43.30;;;;;;5062081;28;20209;-65
2022/06/21 00:08:19;;;;;;;2.57;1.83;;;24.80;43.40;;;;;;5039603;28;20194;-66
2022/06/21 00:10:47;;;;;;;2.73;1.80;;;24.80;43.40;;;;;;5062345;28;20304;-66
2022/06/21 00:13:21;;;;;;;3.47;1.90;;;24.80;43.40;;;;;;5062669;28;20200;-66
2022/06/21 00:15:51;;;;;;;3.07;1.90;;;24.70;43.40;;;;;;5058683;28;20201;-66
2022/06/21 00:18:20;;;;;;;3.60;1.80;;;24.70;43.40;;;;;;5060288;28;20640;-65
2022/06/21 00:20:48;;;;;;;2.80;1.90;;;24.70;43.50;;;;;;5063685;28;20583;-65
2022/06/21 00:23:20;;;;;;;3.53;1.97;;;24.70;43.50;;;;;;5061090;28;20221;-66
2022/06/21 00:25:47;;;;;;;2.90;2.07;;;24.70;43.50;;;;;;5063828;28;20229;-65
2022/06/21 00:28:16;;;;;;;2.37;1.77;;;24.70;43.60;;;;;;5058467;28;20211;-66
2022/06/21 00:30:44;;;;;;;3.03;1.70;;;24.70;43.60;;;;;;5063158;28;20205;-65
2022/06/21 00:33:14;;;;;;;3.47;1.93;;;24.70;43.60;;;;;;5042614;28;20202;-65
2022/06/21 00:35:43;;;;;;;3.80;1.87;;;24.60;43.60;;;;;;5043790;28;20225;-65
2022/06/21 00:38:15;;;;;;;3.60;1.87;;;24.60;43.60;;;;;;5040301;28;20205;-66
2022/06/21 00:40:43;;;;;;;3.60;2.13;;;24.60;43.60;;;;;;5063271;28;20421;-65
2022/06/21 00:43:17;;;;;;;3.23;2.07;;;24.60;43.60;;;;;;5064800;28;20209;-66
2022/06/21 00:45:47;;;;;;;2.07;1.87;;;24.60;43.60;;;;;;5063366;28;20228;-65
2022/06/21 00:48:29;;;;;;;5.47;2.03;;;24.60;43.60;;;;;;5062046;28;20248;-65
2022/06/21 00:51:26;;;;;;;2.27;1.70;;;24.60;43.70;;;;;;5042020;28;20202;-65
2022/06/21 00:54:18;;;;;;;2.93;1.83;;;24.60;43.70;;;;;;5049846;28;20194;-65
2022/06/21 00:56:58;;;;;;;3.83;2.10;;;24.60;43.80;;;;;;5067039;28;20217;-66
2022/06/21 00:59:31;;;;;;;4.77;2.20;;;24.50;43.70;;;;;;5062528;28;20659;-65
2022/06/21 01:02:21;;;;;;;2.53;2.00;;;24.50;43.80;;;;;;5067104;28;20206;-65
2022/06/21 01:04:52;;;;;;;3.63;2.20;;;24.50;43.80;;;;;;5045587;28;20190;-66
2022/06/21 01:07:20;;;;;;;3.90;1.90;;;24.50;43.90;;;;;;5068249;28;20204;-65
2022/06/21 01:10:13;;;;;;;3.67;2.00;;;24.50;43.90;;;;;;5065498;28;20212;-65
2022/06/21 01:12:48;;;;;;;2.67;2.27;;;24.50;43.90;;;;;;5067191;28;20204;-65
2022/06/21 01:15:20;;;;;;;3.07;1.77;;;24.50;43.90;;;;;;5062582;28;20202;-65
2022/06/21 01:17:50;;;;;;;3.23;1.83;;;24.40;43.90;;;;;;5066425;28;20235;-65
2022/06/21 01:20:24;;;;;;;6.63;2.60;;;24.40;43.80;;;;;;5045711;28;20217;-65
2022/06/21 01:23:15;;;;;;;2.03;1.80;;;24.40;43.90;;;;;;5065807;28;20236;-66
2022/06/21 01:26:03;;;;;;;3.40;1.97;;;24.40;43.90;;;;;;5066042;28;20209;-66
2022/06/21 01:28:32;;;;;;;6.47;2.37;;;24.40;43.90;;;;;;5063537;28;20198;-64
2022/06/21 01:30:59;;;;;;;3.43;2.37;;;24.40;43.90;;;;;;5063974;28;20178;-65
2022/06/21 01:33:34;;;;;;;4.03;2.07;;;24.40;44.00;;;;;;5067654;28;20208;-65
2022/06/21 01:36:06;;;;;;;5.27;2.40;;;24.40;44.10;;;;;;5044563;28;20243;-66
2022/06/21 01:38:43;;;;;;;2.80;1.77;;;24.40;44.10;;;;;;5066876;28;20198;-65
2022/06/21 01:41:18;;;;;;;3.50;1.90;;;24.40;44.50;;;;;;5049289;28;20202;-65
2022/06/21 01:43:48;;;;;;;7.33;2.17;;;24.40;44.10;;;;;;5067415;28;20208;-64
2022/06/21 01:46:19;;;;;;;3.97;2.27;;;24.30;44.10;;;;;;5064239;28;20903;-65
2022/06/21 01:48:52;;;;;;;3.23;2.07;;;24.30;44.00;;;;;;5068695;28;20639;-66
2022/06/21 01:51:35;;;;;;;4.23;1.90;;;24.30;44.00;;;;;;5063063;28;20674;-66
2022/06/21 01:54:05;;;;;;;3.40;2.20;;;24.30;44.00;;;;;;5063273;28;20784;-67
2022/06/21 01:56:37;;;;;;;4.07;2.07;;;24.30;44.00;;;;;;5065272;28;20334;-66
2022/06/21 01:59:12;;;;;;;2.77;1.80;;;24.30;43.90;;;;;;5066941;28;20229;-66
2022/06/21 02:02:01;;;;;;;3.73;1.90;;;24.30;44.00;;;;;;5052005;28;20211;-66
2022/06/21 02:04:43;;;;;;;3.30;1.87;;;24.30;44.00;;;;;;5060664;28;20186;-67
2022/06/21 02:07:16;;;;;;;2.63;1.60;;;24.30;44.00;;;;;;5064258;28;20206;-66
2022/06/21 02:10:13;;;;;;;4.30;1.90;;;24.30;44.00;;;;;;5067460;28;20588;-66
2022/06/21 02:12:46;;;;;;;3.97;2.10;;;24.30;44.00;;;;;;5065633;28;20619;-66
2022/06/21 02:15:24;;;;;;;4.47;2.00;;;24.20;44.00;;;;;;5071955;28;20281;-66
2022/06/21 02:17:52;;;;;;;4.97;2.33;;;24.20;44.00;;;;;;5066791;28;20194;-67
2022/06/21 02:20:27;;;;;;;2.67;1.90;;;24.20;44.00;;;;;;5063331;28;20197;-66
2022/06/21 02:22:53;;;;;;;3.47;2.00;;;24.20;44.00;;;;;;5061137;28;20521;-66
2022/06/21 02:25:23;;;;;;;3.17;1.90;;;24.20;44.10;;;;;;5064583;28;20205;-66
2022/06/21 02:27:53;;;;;;;4.10;1.93;;;24.20;44.10;;;;;;5064833;28;20183;-66
2022/06/21 02:30:23;;;;;;;2.83;1.70;;;24.20;44.10;;;;;;5055815;28;20201;-66
2022/06/21 02:32:53;;;;;;;2.80;1.87;;;24.20;44.20;;;;;;5048207;28;20213;-66
2022/06/21 02:35:20;;;;;;;3.73;2.10;;;24.20;44.10;;;;;;5062863;28;20198;-66
2022/06/21 02:37:48;;;;;;;3.17;2.00;;;24.20;44.10;;;;;;5065758;28;20212;-66
2022/06/21 02:40:24;;;;;;;2.73;1.90;;;24.20;44.10;;;;;;5063247;28;20197;-66
2022/06/21 02:42:54;;;;;;;4.77;2.10;;;24.20;44.10;;;;;;5065955;28;20198;-66
2022/06/21 02:45:24;;;;;;;3.80;2.00;;;24.10;44.10;;;;;;5061027;28;20213;-66
2022/06/21 02:47:59;;;;;;;4.00;2.10;;;24.10;44.20;;;;;;5058280;28;20201;-66
2022/06/21 02:50:32;;;;;;;3.37;1.87;;;24.10;44.20;;;;;;5060195;28;20186;-65
2022/06/21 02:53:14;;;;;;;4.83;2.23;;;24.10;44.20;;;;;;5066123;28;20189;-66
2022/06/21 02:55:50;;;;;;;1.93;1.73;;;24.10;44.20;;;;;;5062786;28;20193;-66
2022/06/21 02:58:28;;;;;;;3.93;2.00;;;24.10;44.20;;;;;;5044999;28;20209;-66
2022/06/21 03:00:58;;;;;;;4.33;2.17;;;24.10;44.30;;;;;;5061911;28;20226;-66
2022/06/21 03:03:27;;;;;;;3.73;2.10;;;24.10;44.30;;;;;;5048238;28;20197;-66
2022/06/21 03:05:59;;;;;;;5.00;2.50;;;24.10;44.30;;;;;;5059322;28;20210;-66
2022/06/21 03:08:29;;;;;;;3.23;2.03;;;24.10;44.30;;;;;;5060058;28;20194;-65
2022/06/21 03:10:57;;;;;;;3.13;2.00;;;24.10;44.30;;;;;;5062514;28;20209;-66
2022/06/21 03:13:34;;;;;;;2.63;1.80;;;24.00;44.30;;;;;;5065199;28;20189;-66
2022/06/21 03:16:06;;;;;;;3.10;2.00;;;24.10;44.30;;;;;;5064559;28;20204;-66
2022/06/21 03:18:44;;;;;;;2.67;1.93;;;24.10;44.30;;;;;;5065207;28;20186;-66
2022/06/21 03:21:14;;;;;;;3.57;2.17;;;24.00;44.20;;;;;;5061988;28;20419;-66
2022/06/21 03:23:44;;;;;;;4.83;1.80;;;24.00;44.20;;;;;;5064502;28;20224;-66
2022/06/21 03:26:13;;;;;;;2.80;1.97;;;24.00;44.20;;;;;;5064050;28;20212;-66
2022/06/21 03:28:43;;;;;;;3.20;2.00;;;24.00;44.20;;;;;;5060682;28;20191;-66
2022/06/21 03:31:16;;;;;;;3.93;1.77;;;24.00;44.20;;;;;;5046157;28;20510;-66
2022/06/21 03:33:50;;;;;;;5.97;2.33;;;24.00;44.20;;;;;;5065139;28;20199;-66
2022/06/21 03:36:21;;;;;;;4.13;1.80;;;24.00;44.20;;;;;;5056729;28;20217;-66
2022/06/21 03:38:53;;;;;;;3.97;2.47;;;24.00;44.20;;;;;;5065366;28;20190;-66
2022/06/21 03:44:28;;;;;;;2.17;1.97;;;24.00;44.20;;;;;;5058358;28;20198;-66
2022/06/21 03:47:03;;;;;;;2.73;2.07;;;24.00;44.20;;;;;;5058624;28;20242;-66
2022/06/21 03:49:40;;;;;;;5.23;2.37;;;24.00;44.20;;;;;;5061772;28;20189;-66
2022/06/21 03:52:15;;;;;;;4.07;2.13;;;23.90;44.10;;;;;;5061139;28;20193;-66
2022/06/21 03:54:47;;;;;;;3.20;2.13;;;23.90;44.10;;;;;;5064733;28;20200;-66
2022/06/21 03:57:24;;;;;;;3.23;1.97;;;23.90;44.20;;;;;;5063563;28;20198;-64
2022/06/21 04:00:01;;;;;;;3.53;1.70;;;23.90;44.20;;;;;;5056999;28;20243;-64
2022/06/21 04:02:33;;;;;;;3.70;2.13;;;23.90;44.20;;;;;;5061662;28;20193;-66
2022/06/21 04:05:29;;;;;;;2.97;1.60;;;23.90;44.30;;;;;;5062742;28;20826;-66
2022/06/21 04:08:25;;;;;;;2.60;1.87;;;23.90;44.30;;;;;;5056695;28;20233;-63
2022/06/21 04:11:06;;;;;;;3.57;2.27;;;23.90;44.40;;;;;;5057978;28;20226;-63
2022/06/21 04:13:45;;;;;;;3.57;1.90;;;23.90;44.40;;;;;;5061569;28;20264;-63
2022/06/21 04:16:53;;;;;;;3.20;1.87;;;23.90;44.50;;;;;;5058049;28;20210;-66
2022/06/21 04:19:36;;;;;;;2.77;1.90;;;23.90;44.50;;;;;;4988615;28;20196;-66
2022/06/21 04:22:12;;;;;;;2.33;1.80;;;23.90;44.50;;;;;;4991744;28;20212;-66
2022/06/21 04:25:08;;;;;;;6.40;2.10;;;23.90;44.60;;;;;;5036272;28;20222;-66
2022/06/21 04:28:27;;;;;;;4.57;1.70;;;23.90;44.70;;;;;;5044777;28;20227;-65
2022/06/21 04:31:00;;;;;;;5.97;1.70;;;23.90;44.80;;;;;;5008344;28;20206;-65
2022/06/21 04:33:54;;;;;;;4.10;2.00;;;23.90;44.80;;;;;;5067307;28;20198;-65
2022/06/21 04:36:32;;;;;;;3.07;1.70;;;23.90;44.90;;;;;;5055818;28;20217;-66
2022/06/21 04:39:13;;;;;;;3.17;2.10;;;23.80;44.80;;;;;;5071980;28;20189;-66
2022/06/21 04:41:56;;;;;;;2.63;2.00;;;23.90;44.90;;;;;;5068003;28;20209;-63
2022/06/21 04:44:55;;;;;;;3.83;1.90;;;23.80;44.90;;;;;;5061211;28;20198;-63
2022/06/21 04:47:42;;;;;;;4.43;2.10;;;23.80;44.90;;;;;;5064444;28;20246;-66
2022/06/21 04:50:24;;;;;;;4.87;2.30;;;23.90;45.00;;;;;;5075352;28;20190;-65
2022/06/21 04:53:01;;;;;;;3.43;2.20;;;23.80;44.90;;;;;;5077809;28;20495;-66
2022/06/21 04:55:42;;;;;;;3.37;2.30;;;23.80;44.80;;;;;;5074271;28;20197;-64
2022/06/21 04:58:10;;;;;;;4.40;1.80;;;23.90;44.90;;;;;;5058999;28;20194;-64
2022/06/21 05:00:37;;;;;;;2.50;1.70;;;23.80;44.80;;;;;;5063269;28;20230;-65
2022/06/21 05:03:16;;;;;;;4.43;2.47;;;23.80;44.80;;;;;;5067049;28;20260;-65
2022/06/21 05:05:44;;;;;;;7.40;2.67;;;23.80;44.80;;;;;;5066191;28;20637;-63
2022/06/21 05:08:20;;;;;;;2.87;2.00;;;23.90;44.90;;;;;;5064401;28;20222;-63
2022/06/21 05:10:58;;;;;;;3.70;2.07;;;23.80;44.80;;;;;;5033573;28;20205;-66
2022/06/21 05:13:38;;;;;;;3.97;2.30;;;23.80;44.80;;;;;;5075529;28;20205;-66
2022/06/21 05:16:31;;;;;;;5.53;2.10;;;23.80;44.80;;;;;;5051171;28;20185;-64
2022/06/21 05:19:27;;;;;;;4.00;2.30;;;23.80;44.70;;;;;;5065238;28;20193;-64
2022/06/21 05:22:08;;;;;;;6.60;2.83;;;23.80;44.80;;;;;;5051796;28;20527;-66
2022/06/21 05:24:38;;;;;;;4.40;2.40;;;23.80;44.70;;;;;;5070800;28;20732;-66
2022/06/21 05:27:41;;;;;;;7.27;2.57;;;23.80;44.80;;;;;;5077172;28;20210;-66
2022/06/21 05:30:49;;;;;;;4.90;2.43;;;23.80;44.80;;;;;;5059236;28;20268;-66
2022/06/21 05:33:40;;;;;;;5.50;2.10;;;23.80;44.90;;;;;;5027685;28;20597;-66
2022/06/21 05:36:20;;;;;;;5.87;2.40;;;23.80;45.00;;;;;;5058879;28;20202;-63
2022/06/21 05:39:01;;;;;;;13.43;5.13;;;23.80;45.00;;;;;;5066374;28;20220;-63
2022/06/21 05:41:43;;;;;;;16.80;5.63;;;23.80;46.40;;;;;;5051777;28;20682;-65
2022/06/21 05:44:34;;;;;;;20.47;5.40;;;23.80;45.40;;;;;;5057868;28;20208;-67
2022/06/21 05:47:36;;;;;;;15.73;5.07;;;23.80;45.60;;;;;;5058678;28;20776;-71
2022/06/21 05:50:12;;;;;;;16.37;4.63;;;23.80;45.50;;;;;;5061635;28;20190;-67
2022/06/21 05:52:48;;;;;;;9.67;4.10;;;23.80;45.50;;;;;;5049207;28;20193;-70
2022/06/21 05:55:29;;;;;;;10.33;3.33;;;;;;;;;;5061284;28;20255;-68
2022/06/21 05:58:02;;;;;;;10.20;3.90;;;;;;;;;;5063831;28;20205;-69
2022/06/21 06:00:52;;;;;;;44.97;11.77;;;;;;;;;;5028305;28;20233;-67
2022/06/21 06:03:31;;;;;;;36.03;11.53;;;;;;;;;;5021857;28;20199;-67
2022/06/21 06:06:05;;;;;;;23.60;8.03;;;;;;;;;;5023266;28;20191;-68
2022/06/21 06:08:40;;;;;;;17.53;6.60;;;;;;;;;;5024330;28;20221;-68
2022/06/21 06:11:14;;;;;;;14.13;5.63;;;;;;;;;;5022471;28;20206;-69
2022/06/21 06:13:48;;;;;;;15.90;5.33;;;24.10;46.70;;;;;;5028443;28;20253;-69
2022/06/21 06:16:36;;;;;;;9.97;4.37;;;24.10;46.30;;;;;;5014140;28;20765;-70
2022/06/21 06:19:20;;;;;;;11.03;3.80;;;24.10;46.00;;;;;;5022880;28;20206;-70
2022/06/21 06:22:20;;;;;;;10.10;3.10;;;24.10;46.00;;;;;;5011434;28;20214;-71
2022/06/21 06:25:01;;;;;;;5.00;2.73;;;24.20;45.90;;;;;;5024287;28;20588;-71
2022/06/21 06:28:15;;;;;;;4.63;2.77;;;24.20;45.80;;;;;;5026171;28;20750;-67
2022/06/21 06:30:58;;;;;;;11.60;2.90;;;24.20;45.50;;;;;;5020706;28;20203;-67
2022/06/21 06:33:31;;;;;;;5.27;2.60;;;;;;;;;;5009433;28;20880;-67
2022/06/21 06:36:02;;;;;;;5.87;2.40;;;;;;;;;;5022587;28;20213;-67
2022/06/21 06:38:29;;;;;;;6.20;2.37;;;;;;;;;;5023329;28;20742;-68
2022/06/21 06:41:03;;;;;;;7.33;2.90;;;;;;;;;;5032635;28;20209;-69
2022/06/21 06:43:44;;;;;;;7.73;2.57;;;;;;;;;;5021713;28;20223;-69
2022/06/21 06:46:20;;;;;;;7.43;2.30;;;;;;;;;;5020519;28;20198;-69
2022/06/21 06:48:47;;;;;;;7.70;2.50;;;;;;;;;;5024566;28;20206;-69
2022/06/21 06:51:14;;;;;;;8.00;2.30;;;;;;;;;;5017235;28;20241;-67
2022/06/21 06:53:51;;;;;;;5.40;2.50;;;24.30;44.10;;;;;;5019004;28;20206;-67
2022/06/21 06:56:20;;;;;;;7.37;2.40;;;;;;;;;;5021757;28;20527;-69
2022/06/21 06:58:49;;;;;;;5.95;2.33;;;;;;;;;;5019258;28;20442;-71
2022/06/21 07:01:20;;;;;;;4.20;2.03;;;24.40;44.30;;;;;;5024303;28;20195;-68
2022/06/21 07:04:03;;;;;;;5.83;1.67;;;24.40;44.30;;;;;;5008447;28;20214;-70
2022/06/21 07:06:53;;;;;;;5.23;1.70;;;24.50;44.30;;;;;;5015946;28;20199;-68
2022/06/21 07:09:25;;;;;;;3.17;1.50;;;24.60;44.20;;;;;;5022916;28;20210;-66
2022/06/21 07:12:17;;;;;;;4.10;2.07;;;24.60;44.30;;;;;;5023011;28;20238;-67
2022/06/21 07:14:46;;;;;;;4.10;1.97;;;24.60;44.10;;;;;;5028029;28;20206;-68
2022/06/21 07:17:52;;;;;;;3.47;1.60;;;24.60;44.00;;;;;;5013975;28;20198;-66
2022/06/21 07:20:43;;;;;;;4.60;1.73;;;24.70;44.00;;;;;;4916360;29;20210;-65
2022/06/21 07:23:19;;;;;;;3.40;1.67;;;24.70;43.90;;;;;;5002338;28;20202;-66
2022/06/21 07:25:56;;;;;;;4.37;1.63;;;24.80;43.90;;;;;;5025218;28;20625;-66
2022/06/21 07:28:50;;;;;;;2.53;1.63;;;24.80;43.80;;;;;;5022393;28;20352;-68
2022/06/21 07:31:31;;;;;;;3.17;1.60;;;24.80;43.80;;;;;;5016815;28;20192;-68
2022/06/21 07:34:31;;;;;;;2.10;1.50;;;24.90;43.80;;;;;;5003117;28;20207;-66
2022/06/21 07:37:11;;;;;;;3.07;1.80;;;24.90;43.60;;;;;;5002032;28;20557;-67
2022/06/21 07:40:05;;;;;;;4.10;1.70;;;24.90;44.10;;;;;;5000175;28;20732;-68
2022/06/21 07:42:42;;;;;;;2.93;1.73;;;24.90;44.10;;;;;;5007290;28;20194;-67
2022/06/21 07:45:29;;;;;;;3.20;1.77;;;24.90;44.10;;;;;;5021165;28;20194;-66
2022/06/21 07:48:04;;;;;;;3.73;1.53;;;25.00;44.00;;;;;;5014631;28;20237;-65
2022/06/21 07:50:39;;;;;;;4.00;2.00;;;25.00;44.00;;;;;;5020121;28;20201;-64
2022/06/21 07:53:19;;;;;;;3.80;1.77;;;25.00;43.20;;;;;;5025187;28;20203;-67
2022/06/21 07:55:50;;;;;;;4.07;2.20;;;25.00;43.30;;;;;;5026932;28;20190;-66
2022/06/21 07:58:53;;;;;;;4.37;1.70;;;25.00;43.70;;;;;;5025748;28;20195;-66
2022/06/21 08:07:11;;;;;;;3.90;1.77;;;25.00;43.90;;;;;;5046841;28;20206;-71
2022/06/21 08:09:48;;;;;;;4.23;1.80;;;25.00;43.90;;;;;;5014076;28;20206;-68
2022/06/21 08:12:19;;;;;;;5.00;1.90;;;25.10;43.70;;;;;;5025514;28;20232;-67
2022/06/21 08:14:46;;;;;;;3.33;2.00;;;25.10;44.20;;;;;;5013361;28;20191;-67
2022/06/21 08:17:36;;;;;;;4.13;2.03;;;25.10;44.10;;;;;;5047662;28;20206;-67
2022/06/21 08:20:22;;;;;;;4.33;2.10;;;25.10;44.10;;;;;;5044409;28;20206;-70
2022/06/21 08:23:18;;;;;;;3.47;1.63;;;25.20;43.40;;;;;;5026660;28;20554;-69
2022/06/21 08:26:21;;;;;;;4.80;1.87;;;25.20;43.90;;;;;;5003277;28;20214;-69
2022/06/21 08:29:32;;;;;;;2.97;1.93;;;25.20;43.10;;;;;;5016526;28;20249;-69
2022/06/21 08:32:06;;;;;;;5.77;2.20;;;25.20;43.70;;;;;;5043941;28;20202;-70
2022/06/21 08:34:56;;;;;;;4.27;1.90;;;25.30;43.10;;;;;;5007503;28;20197;-70
2022/06/21 08:37:35;;;;;;;4.20;1.90;;;25.30;43.10;;;;;;5042683;28;20219;-71
2022/06/21 08:40:47;;;;;;;5.60;2.27;;;25.30;43.60;;;;;;5043406;28;20190;-70
2022/06/21 08:43:14;;;;;;;3.73;1.93;;;25.30;43.40;;;;;;5036294;28;20237;-69
2022/06/21 08:46:18;;;;;;;3.57;2.10;;;25.40;42.90;;;;;;5049086;28;20741;-70
2022/06/21 08:48:58;;;;;;;6.27;2.00;;;25.40;43.40;;;;;;5043745;28;20226;-68
2022/06/21 08:51:46;;;;;;;3.43;2.00;;;25.40;43.20;;;;;;5047088;28;20191;-68
2022/06/21 08:54:47;;;;;;;3.77;1.90;;;25.40;43.90;;;;;;5040826;28;20193;-68
2022/06/21 08:57:46;;;;;;;3.83;2.00;;;25.50;43.70;;;;;;5046123;28;20198;-65
2022/06/21 09:00:19;;;;;;;3.23;1.63;;;25.50;43.50;;;;;;5040221;28;20237;-66
2022/06/21 09:02:58;;;;;;;4.90;2.03;;;25.40;41.90;;;;;;5043643;28;20442;-68
2022/06/21 09:05:47;;;;;;;5.93;2.07;;;25.40;42.90;;;;;;5046951;28;20183;-67
2022/06/21 09:08:28;;;;;;;3.63;1.77;;;25.40;42.70;;;;;;5044234;28;20210;-67
2022/06/21 09:11:25;;;;;;;5.27;1.90;;;25.40;42.10;;;;;;5042254;28;20221;-69
2022/06/21 09:14:27;;;;;;;4.23;2.00;;;25.40;43.00;;;;;;5041105;28;20217;-69
2022/06/21 09:16:59;;;;;;;3.87;1.80;;;25.30;41.90;;;;;;5027097;28;20706;-69
2022/06/21 09:20:07;;;;;;;3.60;1.77;;;25.30;42.40;;;;;;5046457;28;20190;-68
2022/06/21 09:23:03;;;;;;;3.63;1.63;;;25.30;41.70;;;;;;5049116;28;20209;-68
2022/06/21 09:26:01;;;;;;;5.37;1.67;;;25.30;41.70;;;;;;5044489;28;20199;-70
2022/06/21 09:28:50;;;;;;;3.77;1.53;;;25.30;41.50;;;;;;5049808;28;20376;-69
2022/06/21 09:32:02;;;;;;;5.03;1.83;;;25.30;41.70;;;;;;5044326;28;20210;-70
2022/06/21 09:35:12;;;;;;;3.93;1.90;;;25.30;41.60;;;;;;5036528;28;20720;-69
2022/06/21 09:38:23;;;;;;;2.50;1.90;;;25.30;41.50;;;;;;5041248;28;20200;-67
2022/06/21 09:41:18;;;;;;;4.70;1.83;;;;;;;;;;5044893;28;20249;-63
2022/06/21 09:44:23;;;;;;;5.07;1.67;;;25.30;41.40;;;;;;5039779;28;20240;-69
2022/06/21 09:46:56;;;;;;;3.67;1.77;;;25.30;41.70;;;;;;5046217;28;20237;-69
2022/06/21 09:49:35;;;;;;;2.87;1.80;;;25.20;41.30;;;;;;5044321;28;20524;-68
2022/06/21 09:52:31;;;;;;;11.17;3.17;;;25.20;42.40;;;;;;5046092;28;20224;-63
2022/06/21 09:55:17;;;;;;;5.47;2.27;;;;;;;;;;5041042;28;20538;-63
2022/06/21 09:58:09;;;;;;;7.27;2.67;;;25.20;41.40;;;;;;5045216;28;20198;-63
2022/06/21 10:00:55;;;;;;;6.83;2.17;;;25.20;42.10;;;;;;5023558;28;20763;-62
2022/06/21 10:03:41;;;;;;;8.17;2.80;;;25.20;42.00;;;;;;5046877;28;20205;-62
2022/06/21 10:06:49;;;;;;;6.20;2.70;;;25.20;42.30;;;;;;5037306;28;20190;-63
2022/06/21 10:09:26;;;;;;;4.83;2.60;;;25.20;42.40;;;;;;5028940;28;20214;-63
2022/06/21 10:12:45;;;;;;;6.30;2.90;;;25.20;42.50;;;;;;5044815;28;20224;-64
2022/06/21 10:15:43;;;;;;;5.23;2.60;;;25.10;42.50;;;;;;4945676;28;20221;-64
2022/06/21 10:18:31;;;;;;;6.63;3.00;;;25.10;42.40;;;;;;5043695;28;20194;-66
2022/06/21 10:21:16;;;;;;;5.10;2.13;;;25.10;42.30;;;;;;5045071;28;20202;-63
2022/06/21 10:24:12;;;;;;;5.07;2.43;;;25.10;42.40;;;;;;5041884;28;20225;-63
2022/06/21 10:26:52;;;;;;;3.40;2.00;;;25.10;42.40;;;;;;5030854;28;20695;-63
2022/06/21 10:29:36;;;;;;;3.57;1.90;;;25.10;42.50;;;;;;5041606;28;20206;-63
2022/06/21 10:32:16;;;;;;;6.27;2.33;;;25.00;42.40;;;;;;5041370;28;20621;-65
2022/06/21 10:35:10;;;;;;;3.93;2.03;;;25.10;42.40;;;;;;5038549;28;20723;-65
2022/06/21 10:38:20;;;;;;;2.97;1.90;;;25.00;42.10;;;;;;5042153;28;20202;-63
2022/06/21 10:41:25;;;;;;;3.70;1.97;;;25.10;42.40;;;;;;5021971;28;20195;-64
2022/06/21 10:44:07;;;;;;;3.30;2.00;;;25.00;41.60;;;;;;5042565;28;20214;-66
2022/06/21 10:46:49;;;;;;;4.33;1.93;;;25.00;42.50;;;;;;5041072;28;20213;-68
2022/06/21 10:49:22;;;;;;;3.60;2.13;;;25.10;43.10;;;;;;5044604;28;20389;-66
2022/06/21 10:52:11;;;;;;;7.77;2.20;;;;;;;;;;5045178;28;20214;-67
2022/06/21 10:54:44;;;;;;;4.77;2.03;;;;;;;;;;5040146;28;20190;-69
2022/06/21 10:57:27;;;;;;;3.80;1.80;;;;;;;;;;5047692;28;20224;-67
2022/06/21 11:03:11;;;;;;;6.60;1.97;;;25.10;43.70;;;;;;5041086;28;20202;-66
2022/06/21 11:06:10;;;;;;;5.40;2.07;;;25.10;43.60;;;;;;5045084;28;20698;-66
2022/06/21 11:09:24;;;;;;;6.27;2.00;;;25.20;42.90;;;;;;5044103;28;20210;-65
2022/06/21 11:11:55;;;;;;;3.90;1.63;;;25.10;43.30;;;;;;5031841;28;20217;-66
2022/06/21 11:14:48;;;;;;;2.53;1.97;;;25.20;43.20;;;;;;5041092;28;20209;-66
2022/06/21 11:17:35;;;;;;;4.17;2.20;;;25.20;42.90;;;;;;5041389;28;20483;-67
2022/06/21 11:20:07;;;;;;;6.50;1.87;;;25.20;43.10;;;;;;5046102;28;20210;-67
2022/06/21 11:22:51;;;;;;;5.03;1.90;;;25.20;43.10;;;;;;5041265;28;20655;-67
2022/06/21 11:25:48;;;;;;;6.20;2.20;;;25.10;43.20;;;;;;5043592;28;20218;-68
2022/06/21 11:28:44;;;;;;;6.20;2.00;;;25.10;43.10;;;;;;5023514;28;20210;-68
2022/06/21 11:31:24;;;;;;;5.30;2.13;;;25.10;43.00;;;;;;5042175;28;20187;-67
2022/06/21 11:34:24;;;;;;;5.37;2.60;;;25.10;43.00;;;;;;5045516;28;20205;-68
2022/06/21 11:37:17;;;;;;;4.27;1.90;;;25.10;42.80;;;;;;5041200;28;20217;-68
2022/06/21 11:40:15;;;;;;;5.10;2.27;;;25.10;42.90;;;;;;5048634;28;20186;-68
2022/06/21 11:42:52;;;;;;;4.77;2.00;;;25.10;42.90;;;;;;5029017;28;20583;-68
2022/06/21 11:45:31;;;;;;;5.60;2.00;;;25.10;42.90;;;;;;5045743;28;20190;-67
2022/06/21 11:48:23;;;;;;;4.13;2.13;;;25.00;42.80;;;;;;5025634;28;20249;-67
2022/06/21 11:51:02;;;;;;;3.67;2.40;;;25.00;42.70;;;;;;5046860;28;20241;-67
2022/06/21 11:53:32;;;;;;;3.63;2.17;;;25.00;42.60;;;;;;5045861;28;20210;-68
2022/06/21 11:56:02;;;;;;;3.60;2.37;;;25.00;42.80;;;;;;5043928;28;20183;-67
2022/06/21 11:58:38;;;;;;;6.50;2.37;;;25.00;42.80;;;;;;5042701;28;20202;-66
2022/06/21 12:01:19;;;;;;;4.70;2.20;;;25.00;42.80;;;;;;5047504;28;20198;-66
2022/06/21 12:04:12;;;;;;;3.90;2.27;;;25.00;42.90;;;;;;5040478;28;20645;-67
2022/06/21 12:07:14;;;;;;;4.00;1.80;;;25.00;42.90;;;;;;5042778;28;20225;-67
2022/06/21 12:10:09;;;;;;;5.67;2.17;;;25.00;42.70;;;;;;5043822;28;20213;-66
2022/06/21 12:12:54;;;;;;;5.27;2.33;;;25.00;42.70;;;;;;5043277;28;20198;-67
2022/06/21 12:15:52;;;;;;;6.30;2.00;;;25.00;42.80;;;;;;5041330;28;20186;-66
2022/06/21 12:18:28;;;;;;;3.33;2.03;;;25.00;42.70;;;;;;5041966;28;20690;-66
2022/06/21 12:21:20;;;;;;;2.90;1.70;;;25.00;42.60;;;;;;5027375;28;20285;-66
2022/06/21 12:24:02;;;;;;;5.83;2.07;;;25.00;42.70;;;;;;5042633;28;20214;-66
2022/06/21 12:26:34;;;;;;;5.53;2.33;;;25.00;42.60;;;;;;5020255;28;20202;-67
2022/06/21 12:29:11;;;;;;;2.90;2.03;;;25.00;42.40;;;;;;5026988;28;20214;-65
2022/06/21 12:31:52;;;;;;;5.43;2.40;;;25.10;42.80;;;;;;5044454;28;20647;-66
2022/06/21 12:34:40;;;;;;;7.17;3.10;;;25.10;42.60;;;;;;5023012;28;20668;-66
2022/06/21 12:37:57;;;;;;;2.90;1.87;;;25.10;43.50;;;;;;5024434;28;20637;-66
2022/06/21 12:40:38;;;;;;;3.77;2.00;;;25.00;44.20;;;;;;5046118;28;20187;-66
2022/06/21 12:43:29;;;;;;;5.33;2.00;;;25.00;43.70;;;;;;5046284;28;20183;-66
2022/06/21 12:46:07;;;;;;;4.10;1.93;;;25.10;44.40;;;;;;5043462;28;20191;-66
2022/06/21 12:48:54;;;;;;;4.40;1.90;;;25.00;44.40;;;;;;5048062;28;20225;-66
2022/06/21 12:51:48;;;;;;;4.07;2.03;;;25.10;44.60;;;;;;5031308;28;20206;-66
2022/06/21 12:54:50;;;;;;;3.63;2.20;;;25.10;44.00;;;;;;5045512;28;20575;-66
2022/06/21 12:57:47;;;;;;;3.13;1.83;;;25.00;44.10;;;;;;5044894;28;20189;-66
2022/06/21 13:00:39;;;;;;;3.20;1.80;;;25.00;44.50;;;;;;5041299;28;20245;-66
2022/06/21 13:03:22;;;;;;;2.50;1.60;;;25.00;44.60;;;;;;5045437;28;20765;-67
2022/06/21 13:06:27;;;;;;;3.03;1.67;;;25.00;44.60;;;;;;5046091;28;20190;-66
2022/06/21 13:09:29;;;;;;;3.70;1.80;;;25.00;44.30;;;;;;5047903;28;20225;-66
2022/06/21 13:12:04;;;;;;;3.43;1.70;;;25.10;44.20;;;;;;5040513;28;20210;-67
2022/06/21 13:15:00;;;;;;;3.40;1.53;;;25.00;44.80;;;;;;5035177;28;20205;-66
2022/06/21 13:17:52;;;;;;;3.70;1.40;;;25.10;44.40;;;;;;5029686;28;20210;-66
2022/06/21 13:21:06;;;;;;;3.50;1.57;;;25.10;44.30;;;;;;5045255;28;20190;-67
2022/06/21 13:24:10;;;;;;;7.23;1.60;;;25.10;44.00;;;;;;5040397;28;20214;-67
2022/06/21 13:27:02;;;;;;;4.20;1.50;;;25.10;44.20;;;;;;5046520;28;20202;-66
2022/06/21 13:29:57;;;;;;;3.37;1.60;;;25.00;44.00;;;;;;5046766;28;20229;-67
2022/06/21 13:32:32;;;;;;;4.50;1.40;;;25.00;43.50;;;;;;5019893;28;21189;-67
2022/06/21 13:35:51;;;;;;;4.00;1.57;;;25.10;43.50;;;;;;5047549;28;20214;-67
2022/06/21 13:39:11;;;;;;;2.73;1.40;;;25.10;43.50;;;;;;5040347;28;20214;-66
2022/06/21 13:45:19;;;;;;;3.03;1.47;;;25.00;43.70;;;;;;5046107;28;20204;-66
2022/06/21 13:48:01;;;;;;;2.27;1.30;;;25.10;43.60;;;;;;5043675;28;20221;-66
2022/06/21 13:50:58;;;;;;;3.63;1.30;;;25.00;43.60;;;;;;5039926;28;20221;-67
2022/06/21 13:53:50;;;;;;;4.30;1.43;;;25.00;43.50;;;;;;5013473;28;20655;-66
2022/06/21 13:56:40;;;;;;;5.83;1.60;;;25.00;43.70;;;;;;5044382;28;20214;-66
2022/06/21 13:59:43;;;;;;;3.93;1.43;;;25.10;42.90;;;;;;5036509;28;20314;-66
2022/06/21 14:02:25;;;;;;;3.63;1.70;;;25.10;42.30;;;;;;5019699;28;20241;-66
2022/06/21 14:05:14;;;;;;;2.43;1.50;;;25.10;43.20;;;;;;5024812;28;20534;-66
2022/06/21 14:07:49;;;;;;;2.50;1.43;;;25.10;43.30;;;;;;5023126;28;20195;-66
2022/06/21 14:10:21;;;;;;;3.33;1.30;;;25.10;43.40;;;;;;5019489;28;20214;-65
2022/06/21 14:12:53;;;;;;;1.90;1.43;;;25.10;43.50;;;;;;4999783;28;20541;-66
2022/06/21 14:15:47;;;;;;;3.60;1.30;;;25.10;43.30;;;;;;5029855;28;20195;-66
2022/06/21 14:18:30;;;;;;;2.83;1.40;;;25.10;43.30;;;;;;5018335;28;20606;-66
2022/06/21 14:21:09;;;;;;;2.57;1.30;;;25.10;43.30;;;;;;5024482;28;20191;-66
2022/06/21 14:23:42;;;;;;;3.60;1.50;;;25.10;43.10;;;;;;5022061;28;20566;-66
2022/06/21 14:26:30;;;;;;;4.00;1.37;;;25.10;43.50;;;;;;5020188;28;20186;-66
2022/06/21 14:29:10;;;;;;;2.83;1.53;;;25.10;43.70;;;;;;5026784;28;20722;-65